sensor_id;sensor_type;location;lat;lon;timestamp;temperature;humidity
47961;DHT22;33721;48.852;9.936;2023-03-26T00:01:53;6.80;99.90
47961;DHT22;33721;48.852;9.936;2023-03-26T00:04:21;6.80;99.90
47961;DHT22;33721;48.852;9.936;2023-03-26T00:06:46;6.70;99.90
47961;DHT22;33721;48.852;9.936;2023-03-26T00:09:14;6.80;99.90
47961;DHT22;33721;48.852;9.936;2023-03-26T00:11:41;6.80;99.90
47961;DHT22;33721;48.852;9.936;2023-03-26T00:14:07;6.80;99.90
47961;DHT22;33721;48.852;9.936;2023-03-26T00:16:36;6.80;99.90
47961;DHT22;33721;48.852;9.936;2023-03-26T00:19:02;6.70;99.90
47961;DHT22;33721;48.852;9.936;2023-03-26T00:21:29;6.70;99.90
47961;DHT22;33721;48.852;9.936;2023-03-26T00:24:00;6.60;99.90
47961;DHT22;33721;48.852;9.936;2023-03-26T00:26:30;6.40;99.90
47961;DHT22;33721;48.852;9.936;2023-03-26T00:28:57;6.40;99.90
47961;DHT22;33721;48.852;9.936;2023-03-26T00:31:24;6.30;99.90
47961;DHT22;33721;48.852;9.936;2023-03-26T00:33:51;6.30;99.90
47961;DHT22;33721;48.852;9.936;2023-03-26T00:36:23;6.20;99.90
47961;DHT22;33721;48.852;9.936;2023-03-26T00:38:50;6.10;99.90
47961;DHT22;33721;48.852;9.936;2023-03-26T00:41:18;6.10;99.90
47961;DHT22;33721;48.852;9.936;2023-03-26T00:43:52;6.10;99.90
47961;DHT22;33721;48.852;9.936;2023-03-26T00:46:20;6.10;99.90
47961;DHT22;33721;48.852;9.936;2023-03-26T00:48:46;6.10;99.90
47961;DHT22;33721;48.852;9.936;2023-03-26T00:51:14;6.10;99.90
47961;DHT22;33721;48.852;9.936;2023-03-26T00:53:41;6.10;99.90
47961;DHT22;33721;48.852;9.936;2023-03-26T00:56:07;6.10;99.90
47961;DHT22;33721;48.852;9.936;2023-03-26T00:58:36;6.20;99.90
47961;DHT22;33721;48.852;9.936;2023-03-26T01:01:05;6.20;99.90
47961;DHT22;33721;48.852;9.936;2023-03-26T01:03:34;6.10;99.90
47961;DHT22;33721;48.852;9.936;2023-03-26T01:06:02;6.10;99.90
47961;DHT22;33721;48.852;9.936;2023-03-26T01:08:31;6.10;99.90
47961;DHT22;33721;48.852;9.936;2023-03-26T01:11:02;6.10;99.90
47961;DHT22;33721;48.852;9.936;2023-03-26T01:13:34;6.00;99.90
47961;DHT22;33721;48.852;9.936;2023-03-26T01:16:07;6.00;99.90
47961;DHT22;33721;48.852;9.936;2023-03-26T01:18:34;6.00;99.90
47961;DHT22;33721;48.852;9.936;2023-03-26T01:21:06;6.00;99.90
47961;DHT22;33721;48.852;9.936;2023-03-26T01:23:45;6.00;99.90
47961;DHT22;33721;48.852;9.936;2023-03-26T01:26:33;6.00;99.90
47961;DHT22;33721;48.852;9.936;2023-03-26T01:29:03;6.00;99.90
47961;DHT22;33721;48.852;9.936;2023-03-26T01:31:41;5.90;99.90
47961;DHT22;33721;48.852;9.936;2023-03-26T01:34:17;5.90;99.90
47961;DHT22;33721;48.852;9.936;2023-03-26T01:36:52;5.80;99.90
47961;DHT22;33721;48.852;9.936;2023-03-26T01:39:30;5.90;99.90
47961;DHT22;33721;48.852;9.936;2023-03-26T01:42:04;5.90;99.90
47961;DHT22;33721;48.852;9.936;2023-03-26T01:45:17;5.90;99.90
47961;DHT22;33721;48.852;9.936;2023-03-26T01:47:46;5.90;99.90
47961;DHT22;33721;48.852;9.936;2023-03-26T01:50:12;5.90;99.90
47961;DHT22;33721;48.852;9.936;2023-03-26T01:52:38;6.00;99.90
47961;DHT22;33721;48.852;9.936;2023-03-26T01:55:05;6.00;99.90
47961;DHT22;33721;48.852;9.936;2023-03-26T02:00:18;6.10;99.90
47961;DHT22;33721;48.852;9.936;2023-03-26T02:05:36;6.00;99.90
47961;DHT22;33721;48.852;9.936;2023-03-26T02:08:12;6.10;99.90
47961;DHT22;33721;48.852;9.936;2023-03-26T02:10:46;6.10;99.90
47961;DHT22;33721;48.852;9.936;2023-03-26T02:13:13;6.10;99.90
47961;DHT22;33721;48.852;9.936;2023-03-26T02:15:40;6.10;99.90
47961;DHT22;33721;48.852;9.936;2023-03-26T02:18:06;6.10;99.90
47961;DHT22;33721;48.852;9.936;2023-03-26T02:20:36;6.10;99.90
47961;DHT22;33721;48.852;9.936;2023-03-26T02:23:01;6.10;99.90
47961;DHT22;33721;48.852;9.936;2023-03-26T02:25:27;6.10;99.90
47961;DHT22;33721;48.852;9.936;2023-03-26T02:27:55;6.10;99.90
47961;DHT22;33721;48.852;9.936;2023-03-26T02:30:23;6.10;99.90
47961;DHT22;33721;48.852;9.936;2023-03-26T02:32:50;6.10;99.90
47961;DHT22;33721;48.852;9.936;2023-03-26T02:35:19;6.00;99.90
47961;DHT22;33721;48.852;9.936;2023-03-26T02:37:46;6.00;99.90
47961;DHT22;33721;48.852;9.936;2023-03-26T02:40:16;6.00;99.90
47961;DHT22;33721;48.852;9.936;2023-03-26T02:42:42;5.90;99.90
47961;DHT22;33721;48.852;9.936;2023-03-26T02:45:08;5.90;99.90
47961;DHT22;33721;48.852;9.936;2023-03-26T02:47:36;5.90;99.90
47961;DHT22;33721;48.852;9.936;2023-03-26T02:50:02;5.80;99.90
47961;DHT22;33721;48.852;9.936;2023-03-26T02:52:31;5.80;99.90
47961;DHT22;33721;48.852;9.936;2023-03-26T02:54:58;5.80;99.90
47961;DHT22;33721;48.852;9.936;2023-03-26T02:57:23;5.80;99.90
47961;DHT22;33721;48.852;9.936;2023-03-26T02:59:49;5.70;99.90
47961;DHT22;33721;48.852;9.936;2023-03-26T03:02:17;5.70;99.90
47961;DHT22;33721;48.852;9.936;2023-03-26T03:04:43;5.80;99.90
47961;DHT22;33721;48.852;9.936;2023-03-26T03:07:09;5.80;99.90
47961;DHT22;33721;48.852;9.936;2023-03-26T03:09:39;5.80;99.90
47961;DHT22;33721;48.852;9.936;2023-03-26T03:12:04;5.90;99.90
47961;DHT22;33721;48.852;9.936;2023-03-26T03:14:30;5.80;99.90
47961;DHT22;33721;48.852;9.936;2023-03-26T03:16:56;5.80;99.90
47961;DHT22;33721;48.852;9.936;2023-03-26T03:19:22;5.80;99.90
47961;DHT22;33721;48.852;9.936;2023-03-26T03:21:47;5.80;99.90
47961;DHT22;33721;48.852;9.936;2023-03-26T03:24:13;5.90;99.90
47961;DHT22;33721;48.852;9.936;2023-03-26T03:26:43;5.90;99.90
47961;DHT22;33721;48.852;9.936;2023-03-26T03:29:10;5.90;99.90
47961;DHT22;33721;48.852;9.936;2023-03-26T03:31:37;5.90;99.90
47961;DHT22;33721;48.852;9.936;2023-03-26T03:34:02;5.90;99.90
47961;DHT22;33721;48.852;9.936;2023-03-26T03:36:28;5.90;99.90
47961;DHT22;33721;48.852;9.936;2023-03-26T03:38:55;5.90;99.90
47961;DHT22;33721;48.852;9.936;2023-03-26T03:41:27;5.90;99.90
47961;DHT22;33721;48.852;9.936;2023-03-26T03:43:52;5.90;99.90
47961;DHT22;33721;48.852;9.936;2023-03-26T03:46:18;5.90;99.90
47961;DHT22;33721;48.852;9.936;2023-03-26T03:48:43;6.00;99.90
47961;DHT22;33721;48.852;9.936;2023-03-26T03:51:17;6.00;99.90
47961;DHT22;33721;48.852;9.936;2023-03-26T03:53:43;6.00;99.90
47961;DHT22;33721;48.852;9.936;2023-03-26T03:56:10;6.00;99.90
47961;DHT22;33721;48.852;9.936;2023-03-26T03:58:38;6.00;99.90
47961;DHT22;33721;48.852;9.936;2023-03-26T04:01:05;6.00;99.90
47961;DHT22;33721;48.852;9.936;2023-03-26T04:03:31;6.00;99.90
47961;DHT22;33721;48.852;9.936;2023-03-26T04:06:05;5.90;99.90
47961;DHT22;33721;48.852;9.936;2023-03-26T04:08:31;6.00;99.90
47961;DHT22;33721;48.852;9.936;2023-03-26T04:10:58;5.90;99.90
47961;DHT22;33721;48.852;9.936;2023-03-26T04:13:23;5.90;99.90
47961;DHT22;33721;48.852;9.936;2023-03-26T04:15:49;5.90;99.90
47961;DHT22;33721;48.852;9.936;2023-03-26T04:18:15;5.90;99.90
47961;DHT22;33721;48.852;9.936;2023-03-26T04:20:42;5.90;99.90
47961;DHT22;33721;48.852;9.936;2023-03-26T04:23:12;5.90;99.90
47961;DHT22;33721;48.852;9.936;2023-03-26T04:26:00;5.90;99.90
47961;DHT22;33721;48.852;9.936;2023-03-26T04:30:57;5.80;99.90
47961;DHT22;33721;48.852;9.936;2023-03-26T04:33:27;5.80;99.90
47961;DHT22;33721;48.852;9.936;2023-03-26T04:35:53;5.80;99.90
47961;DHT22;33721;48.852;9.936;2023-03-26T04:38:21;5.80;99.90
47961;DHT22;33721;48.852;9.936;2023-03-26T04:40:47;5.80;99.90
47961;DHT22;33721;48.852;9.936;2023-03-26T04:43:14;5.80;99.90
47961;DHT22;33721;48.852;9.936;2023-03-26T04:45:43;5.80;99.90
47961;DHT22;33721;48.852;9.936;2023-03-26T04:48:11;5.80;99.90
47961;DHT22;33721;48.852;9.936;2023-03-26T04:50:41;5.80;99.90
47961;DHT22;33721;48.852;9.936;2023-03-26T04:53:13;5.80;99.90
47961;DHT22;33721;48.852;9.936;2023-03-26T04:55:56;5.80;99.90
47961;DHT22;33721;48.852;9.936;2023-03-26T04:58:23;5.80;99.90
47961;DHT22;33721;48.852;9.936;2023-03-26T05:00:54;5.70;99.90
47961;DHT22;33721;48.852;9.936;2023-03-26T05:03:21;5.80;99.90
47961;DHT22;33721;48.852;9.936;2023-03-26T05:05:49;5.70;99.90
47961;DHT22;33721;48.852;9.936;2023-03-26T05:08:15;5.70;99.90
47961;DHT22;33721;48.852;9.936;2023-03-26T05:10:41;5.70;99.90
47961;DHT22;33721;48.852;9.936;2023-03-26T05:13:06;5.70;99.90
47961;DHT22;33721;48.852;9.936;2023-03-26T05:15:32;5.70;99.90
47961;DHT22;33721;48.852;9.936;2023-03-26T05:17:58;5.80;99.90
47961;DHT22;33721;48.852;9.936;2023-03-26T05:20:26;5.80;99.90
47961;DHT22;33721;48.852;9.936;2023-03-26T05:22:52;5.80;99.90
47961;DHT22;33721;48.852;9.936;2023-03-26T05:25:18;5.70;99.90
47961;DHT22;33721;48.852;9.936;2023-03-26T05:27:44;5.70;99.90
47961;DHT22;33721;48.852;9.936;2023-03-26T05:30:17;5.70;99.90
47961;DHT22;33721;48.852;9.936;2023-03-26T05:32:43;5.70;99.90
47961;DHT22;33721;48.852;9.936;2023-03-26T05:35:11;5.70;99.90
47961;DHT22;33721;48.852;9.936;2023-03-26T05:37:38;5.70;99.90
47961;DHT22;33721;48.852;9.936;2023-03-26T05:40:09;5.80;99.90
47961;DHT22;33721;48.852;9.936;2023-03-26T05:42:36;5.80;99.90
47961;DHT22;33721;48.852;9.936;2023-03-26T05:45:02;5.80;99.90
47961;DHT22;33721;48.852;9.936;2023-03-26T05:47:27;5.80;99.90
47961;DHT22;33721;48.852;9.936;2023-03-26T05:49:56;5.80;99.90
47961;DHT22;33721;48.852;9.936;2023-03-26T05:52:22;5.80;99.90
47961;DHT22;33721;48.852;9.936;2023-03-26T05:54:47;5.70;99.90
47961;DHT22;33721;48.852;9.936;2023-03-26T05:57:16;5.80;99.90
47961;DHT22;33721;48.852;9.936;2023-03-26T05:59:43;5.80;99.90
47961;DHT22;33721;48.852;9.936;2023-03-26T06:02:09;5.90;99.90
47961;DHT22;33721;48.852;9.936;2023-03-26T06:04:35;5.90;99.90
47961;DHT22;33721;48.852;9.936;2023-03-26T06:07:06;5.80;99.90
47961;DHT22;33721;48.852;9.936;2023-03-26T06:09:35;5.90;99.90
47961;DHT22;33721;48.852;9.936;2023-03-26T06:12:08;6.00;99.90
47961;DHT22;33721;48.852;9.936;2023-03-26T06:14:34;6.10;99.90
47961;DHT22;33721;48.852;9.936;2023-03-26T06:17:00;6.10;99.90
47961;DHT22;33721;48.852;9.936;2023-03-26T06:19:26;6.20;99.90
47961;DHT22;33721;48.852;9.936;2023-03-26T06:21:52;6.30;99.90
47961;DHT22;33721;48.852;9.936;2023-03-26T06:24:18;6.40;99.90
47961;DHT22;33721;48.852;9.936;2023-03-26T06:26:45;6.40;99.90
47961;DHT22;33721;48.852;9.936;2023-03-26T06:29:11;6.50;99.90
47961;DHT22;33721;48.852;9.936;2023-03-26T06:31:37;6.60;99.90
47961;DHT22;33721;48.852;9.936;2023-03-26T06:34:03;6.60;99.90
47961;DHT22;33721;48.852;9.936;2023-03-26T06:36:28;6.70;99.90
47961;DHT22;33721;48.852;9.936;2023-03-26T06:38:54;6.70;99.90
47961;DHT22;33721;48.852;9.936;2023-03-26T06:41:19;6.70;99.90
47961;DHT22;33721;48.852;9.936;2023-03-26T06:43:45;6.70;99.90
47961;DHT22;33721;48.852;9.936;2023-03-26T06:46:11;6.70;99.90
47961;DHT22;33721;48.852;9.936;2023-03-26T06:48:38;6.70;99.90
47961;DHT22;33721;48.852;9.936;2023-03-26T06:51:04;6.60;99.90
47961;DHT22;33721;48.852;9.936;2023-03-26T06:53:30;6.60;99.90
47961;DHT22;33721;48.852;9.936;2023-03-26T06:55:56;6.60;99.90
47961;DHT22;33721;48.852;9.936;2023-03-26T06:58:21;6.70;99.90
47961;DHT22;33721;48.852;9.936;2023-03-26T07:00:47;6.70;99.90
47961;DHT22;33721;48.852;9.936;2023-03-26T07:03:16;6.70;99.90
47961;DHT22;33721;48.852;9.936;2023-03-26T07:05:42;6.70;99.90
47961;DHT22;33721;48.852;9.936;2023-03-26T07:08:07;6.70;99.90
47961;DHT22;33721;48.852;9.936;2023-03-26T07:10:33;6.70;99.90
47961;DHT22;33721;48.852;9.936;2023-03-26T07:12:59;6.70;99.90
47961;DHT22;33721;48.852;9.936;2023-03-26T07:15:27;6.70;99.90
47961;DHT22;33721;48.852;9.936;2023-03-26T07:17:53;6.70;99.90
47961;DHT22;33721;48.852;9.936;2023-03-26T07:20:19;6.70;99.90
47961;DHT22;33721;48.852;9.936;2023-03-26T07:22:45;6.80;99.90
47961;DHT22;33721;48.852;9.936;2023-03-26T07:25:12;6.80;99.90
47961;DHT22;33721;48.852;9.936;2023-03-26T07:33:25;6.70;99.90
47961;DHT22;33721;48.852;9.936;2023-03-26T07:39:09;6.70;99.90
47961;DHT22;33721;48.852;9.936;2023-03-26T07:41:49;6.70;99.90
47961;DHT22;33721;48.852;9.936;2023-03-26T07:47:37;6.70;99.90
47961;DHT22;33721;48.852;9.936;2023-03-26T07:50:04;6.70;99.90
47961;DHT22;33721;48.852;9.936;2023-03-26T07:52:30;6.70;99.90
47961;DHT22;33721;48.852;9.936;2023-03-26T07:54:56;6.80;99.90
47961;DHT22;33721;48.852;9.936;2023-03-26T08:00:20;6.80;99.90
47961;DHT22;33721;48.852;9.936;2023-03-26T08:11:08;7.00;99.90
47961;DHT22;33721;48.852;9.936;2023-03-26T08:14:02;7.10;99.90
47961;DHT22;33721;48.852;9.936;2023-03-26T08:19:31;7.10;99.90
47961;DHT22;33721;48.852;9.936;2023-03-26T08:22:12;7.10;99.90
47961;DHT22;33721;48.852;9.936;2023-03-26T08:24:50;7.20;99.90
47961;DHT22;33721;48.852;9.936;2023-03-26T08:27:37;7.20;99.90
47961;DHT22;33721;48.852;9.936;2023-03-26T08:30:16;7.20;99.90
47961;DHT22;33721;48.852;9.936;2023-03-26T08:32:52;7.10;99.90
47961;DHT22;33721;48.852;9.936;2023-03-26T08:35:18;7.10;99.90
47961;DHT22;33721;48.852;9.936;2023-03-26T08:37:44;7.00;99.90
47961;DHT22;33721;48.852;9.936;2023-03-26T08:40:11;7.00;99.90
47961;DHT22;33721;48.852;9.936;2023-03-26T08:42:56;7.00;99.90
47961;DHT22;33721;48.852;9.936;2023-03-26T08:45:57;7.00;99.90
47961;DHT22;33721;48.852;9.936;2023-03-26T08:54:13;6.90;99.90
47961;DHT22;33721;48.852;9.936;2023-03-26T08:56:51;6.80;99.90
47961;DHT22;33721;48.852;9.936;2023-03-26T09:02:34;6.70;99.90
47961;DHT22;33721;48.852;9.936;2023-03-26T09:08:07;6.80;99.90
47961;DHT22;33721;48.852;9.936;2023-03-26T09:19:56;7.00;99.90
47961;DHT22;33721;48.852;9.936;2023-03-26T09:25:22;7.10;99.90
47961;DHT22;33721;48.852;9.936;2023-03-26T09:36:31;7.20;99.90
47961;DHT22;33721;48.852;9.936;2023-03-26T09:39:11;7.30;99.90
47961;DHT22;33721;48.852;9.936;2023-03-26T09:42:07;7.20;99.90
47961;DHT22;33721;48.852;9.936;2023-03-26T10:01:23;7.80;99.90
47961;DHT22;33721;48.852;9.936;2023-03-26T10:09:49;8.40;99.90
47961;DHT22;33721;48.852;9.936;2023-03-26T10:12:21;8.70;99.90
47961;DHT22;33721;48.852;9.936;2023-03-26T10:20:51;9.40;99.90
47961;DHT22;33721;48.852;9.936;2023-03-26T10:40:40;10.00;99.90
47961;DHT22;33721;48.852;9.936;2023-03-26T10:43:19;9.80;99.90
47961;DHT22;33721;48.852;9.936;2023-03-26T10:53:57;9.20;99.90
47961;DHT22;33721;48.852;9.936;2023-03-26T10:56:43;9.20;99.90
47961;DHT22;33721;48.852;9.936;2023-03-26T10:59:14;9.40;99.90
47961;DHT22;33721;48.852;9.936;2023-03-26T11:02:04;9.50;99.90
47961;DHT22;33721;48.852;9.936;2023-03-26T11:04:48;9.70;99.90
47961;DHT22;33721;48.852;9.936;2023-03-26T11:07:38;9.80;99.90
47961;DHT22;33721;48.852;9.936;2023-03-26T11:12:47;9.90;99.90
47961;DHT22;33721;48.852;9.936;2023-03-26T11:20:53;10.60;99.90
47961;DHT22;33721;48.852;9.936;2023-03-26T11:23:34;10.40;99.90
47961;DHT22;33721;48.852;9.936;2023-03-26T11:26:37;10.10;99.90
47961;DHT22;33721;48.852;9.936;2023-03-26T11:29:34;10.10;99.90
47961;DHT22;33721;48.852;9.936;2023-03-26T11:32:38;9.70;99.90
47961;DHT22;33721;48.852;9.936;2023-03-26T11:37:51;9.30;99.90
47961;DHT22;33721;48.852;9.936;2023-03-26T11:40:26;9.40;99.90
47961;DHT22;33721;48.852;9.936;2023-03-26T11:43:06;9.50;99.90
47961;DHT22;33721;48.852;9.936;2023-03-26T11:45:34;9.70;99.90
47961;DHT22;33721;48.852;9.936;2023-03-26T11:48:16;10.20;99.90
47961;DHT22;33721;48.852;9.936;2023-03-26T11:50:50;11.00;99.90
47961;DHT22;33721;48.852;9.936;2023-03-26T11:53:19;11.60;99.90
47961;DHT22;33721;48.852;9.936;2023-03-26T11:55:59;11.80;99.90
47961;DHT22;33721;48.852;9.936;2023-03-26T11:58:50;11.70;99.90
47961;DHT22;33721;48.852;9.936;2023-03-26T12:01:24;11.50;99.90
47961;DHT22;33721;48.852;9.936;2023-03-26T12:04:12;11.60;99.90
47961;DHT22;33721;48.852;9.936;2023-03-26T12:06:38;11.30;99.90
47961;DHT22;33721;48.852;9.936;2023-03-26T12:09:14;11.40;99.90
47961;DHT22;33721;48.852;9.936;2023-03-26T12:11:39;11.60;99.90
47961;DHT22;33721;48.852;9.936;2023-03-26T12:14:06;11.60;99.90
47961;DHT22;33721;48.852;9.936;2023-03-26T12:16:33;12.00;99.90
47961;DHT22;33721;48.852;9.936;2023-03-26T12:19:02;12.40;99.90
47961;DHT22;33721;48.852;9.936;2023-03-26T12:21:47;12.30;99.90
47961;DHT22;33721;48.852;9.936;2023-03-26T12:24:34;12.20;99.90
47961;DHT22;33721;48.852;9.936;2023-03-26T12:29:50;12.00;99.90
47961;DHT22;33721;48.852;9.936;2023-03-26T12:32:16;12.10;99.90
47961;DHT22;33721;48.852;9.936;2023-03-26T12:34:42;12.50;99.90
47961;DHT22;33721;48.852;9.936;2023-03-26T12:37:37;12.80;99.90
47961;DHT22;33721;48.852;9.936;2023-03-26T12:40:25;12.20;99.90
47961;DHT22;33721;48.852;9.936;2023-03-26T12:42:53;11.80;99.90
47961;DHT22;33721;48.852;9.936;2023-03-26T12:45:28;11.50;99.90
47961;DHT22;33721;48.852;9.936;2023-03-26T12:47:55;11.40;99.90
47961;DHT22;33721;48.852;9.936;2023-03-26T12:50:32;11.20;99.90
47961;DHT22;33721;48.852;9.936;2023-03-26T12:53:36;11.10;99.90
47961;DHT22;33721;48.852;9.936;2023-03-26T12:56:18;11.00;99.90
47961;DHT22;33721;48.852;9.936;2023-03-26T12:58:50;11.00;99.90
47961;DHT22;33721;48.852;9.936;2023-03-26T13:15:06;9.70;99.90
47961;DHT22;33721;48.852;9.936;2023-03-26T13:17:35;9.60;99.90
47961;DHT22;33721;48.852;9.936;2023-03-26T13:20:33;9.40;99.90
47961;DHT22;33721;48.852;9.936;2023-03-26T13:28:46;10.50;99.90
47961;DHT22;33721;48.852;9.936;2023-03-26T13:31:33;10.80;99.90
47961;DHT22;33721;48.852;9.936;2023-03-26T13:37:08;11.30;99.90
47961;DHT22;33721;48.852;9.936;2023-03-26T13:39:56;11.40;99.90
47961;DHT22;33721;48.852;9.936;2023-03-26T13:42:35;11.50;99.90
47961;DHT22;33721;48.852;9.936;2023-03-26T13:47:52;12.10;99.90
47961;DHT22;33721;48.852;9.936;2023-03-26T13:50:26;12.30;99.90
47961;DHT22;33721;48.852;9.936;2023-03-26T13:53:03;12.30;99.90
47961;DHT22;33721;48.852;9.936;2023-03-26T13:55:38;12.50;99.90
47961;DHT22;33721;48.852;9.936;2023-03-26T14:00:48;12.60;99.90
47961;DHT22;33721;48.852;9.936;2023-03-26T14:03:40;12.60;99.90
47961;DHT22;33721;48.852;9.936;2023-03-26T14:06:28;12.50;99.90
47961;DHT22;33721;48.852;9.936;2023-03-26T14:17:52;13.00;99.90
47961;DHT22;33721;48.852;9.936;2023-03-26T14:20:22;12.70;99.90
47961;DHT22;33721;48.852;9.936;2023-03-26T14:23:10;12.30;99.90
47961;DHT22;33721;48.852;9.936;2023-03-26T14:28:56;11.70;99.90
47961;DHT22;33721;48.852;9.936;2023-03-26T14:31:35;11.70;99.90
47961;DHT22;33721;48.852;9.936;2023-03-26T14:37:12;11.80;99.90
47961;DHT22;33721;48.852;9.936;2023-03-26T14:40:00;12.20;99.90
47961;DHT22;33721;48.852;9.936;2023-03-26T14:53:50;12.90;99.90
47961;DHT22;33721;48.852;9.936;2023-03-26T14:59:54;12.80;99.90
47961;DHT22;33721;48.852;9.936;2023-03-26T15:22:49;11.10;99.90
47961;DHT22;33721;48.852;9.936;2023-03-26T15:34:19;10.90;99.90
47961;DHT22;33721;48.852;9.936;2023-03-26T15:43:01;9.80;99.90
47961;DHT22;33721;48.852;9.936;2023-03-26T15:45:34;8.80;99.90
47961;DHT22;33721;48.852;9.936;2023-03-26T16:04:23;7.50;99.90
47961;DHT22;33721;48.852;9.936;2023-03-26T16:06:58;7.50;99.90
47961;DHT22;33721;48.852;9.936;2023-03-26T16:12:34;7.60;99.90
47961;DHT22;33721;48.852;9.936;2023-03-26T16:39:10;7.70;99.90
47961;DHT22;33721;48.852;9.936;2023-03-26T16:41:56;7.70;99.90
47961;DHT22;33721;48.852;9.936;2023-03-26T16:50:12;7.50;99.90
47961;DHT22;33721;48.852;9.936;2023-03-26T16:53:04;7.50;99.90
47961;DHT22;33721;48.852;9.936;2023-03-26T16:55:43;7.40;99.90
47961;DHT22;33721;48.852;9.936;2023-03-26T16:58:32;7.30;99.90
47961;DHT22;33721;48.852;9.936;2023-03-26T17:01:31;7.20;99.90
47961;DHT22;33721;48.852;9.936;2023-03-26T17:04:17;7.20;99.90
47961;DHT22;33721;48.852;9.936;2023-03-26T17:12:18;7.00;99.90
47961;DHT22;33721;48.852;9.936;2023-03-26T17:17:34;7.00;99.90
47961;DHT22;33721;48.852;9.936;2023-03-26T17:20:26;6.90;99.90
47961;DHT22;33721;48.852;9.936;2023-03-26T17:31:42;6.80;99.90
47961;DHT22;33721;48.852;9.936;2023-03-26T17:37:04;6.80;99.90
47961;DHT22;33721;48.852;9.936;2023-03-26T17:42:25;6.80;99.90
47961;DHT22;33721;48.852;9.936;2023-03-26T17:45:01;6.80;99.90
47961;DHT22;33721;48.852;9.936;2023-03-26T17:47:44;6.70;99.90
47961;DHT22;33721;48.852;9.936;2023-03-26T17:50:15;6.70;99.90
47961;DHT22;33721;48.852;9.936;2023-03-26T17:55:23;6.50;99.90
47961;DHT22;33721;48.852;9.936;2023-03-26T17:58:13;6.50;99.90
47961;DHT22;33721;48.852;9.936;2023-03-26T18:00:48;6.30;99.90
47961;DHT22;33721;48.852;9.936;2023-03-26T18:03:23;6.30;99.90
47961;DHT22;33721;48.852;9.936;2023-03-26T18:06:08;6.20;99.90
47961;DHT22;33721;48.852;9.936;2023-03-26T18:14:25;6.10;99.90
47961;DHT22;33721;48.852;9.936;2023-03-26T18:16:57;6.10;99.90
47961;DHT22;33721;48.852;9.936;2023-03-26T18:19:25;6.00;99.90
47961;DHT22;33721;48.852;9.936;2023-03-26T18:21:53;6.00;99.90
47961;DHT22;33721;48.852;9.936;2023-03-26T18:24:34;6.00;99.90
47961;DHT22;33721;48.852;9.936;2023-03-26T18:27:09;6.00;99.90
47961;DHT22;33721;48.852;9.936;2023-03-26T18:29:36;6.00;99.90
47961;DHT22;33721;48.852;9.936;2023-03-26T18:34:39;6.00;99.90
47961;DHT22;33721;48.852;9.936;2023-03-26T18:39:54;5.90;99.90
47961;DHT22;33721;48.852;9.936;2023-03-26T18:42:21;6.00;99.90
47961;DHT22;33721;48.852;9.936;2023-03-26T18:44:49;6.00;99.90
47961;DHT22;33721;48.852;9.936;2023-03-26T18:47:15;6.00;99.90
47961;DHT22;33721;48.852;9.936;2023-03-26T18:49:46;6.00;99.90
47961;DHT22;33721;48.852;9.936;2023-03-26T18:52:17;6.00;99.90
47961;DHT22;33721;48.852;9.936;2023-03-26T18:54:48;6.00;99.90
47961;DHT22;33721;48.852;9.936;2023-03-26T18:57:23;6.00;99.90
47961;DHT22;33721;48.852;9.936;2023-03-26T18:59:51;6.00;99.90
47961;DHT22;33721;48.852;9.936;2023-03-26T19:02:17;5.90;99.90
47961;DHT22;33721;48.852;9.936;2023-03-26T19:04:44;5.90;99.90
47961;DHT22;33721;48.852;9.936;2023-03-26T19:07:19;5.90;99.90
47961;DHT22;33721;48.852;9.936;2023-03-26T19:09:48;5.90;99.90
47961;DHT22;33721;48.852;9.936;2023-03-26T19:12:20;5.90;99.90
47961;DHT22;33721;48.852;9.936;2023-03-26T19:14:55;5.90;99.90
47961;DHT22;33721;48.852;9.936;2023-03-26T19:17:23;5.90;99.90
47961;DHT22;33721;48.852;9.936;2023-03-26T19:19:50;5.80;99.90
47961;DHT22;33721;48.852;9.936;2023-03-26T19:22:18;5.80;99.90
47961;DHT22;33721;48.852;9.936;2023-03-26T19:24:45;5.80;99.90
47961;DHT22;33721;48.852;9.936;2023-03-26T19:27:12;5.80;99.90
47961;DHT22;33721;48.852;9.936;2023-03-26T19:29:38;5.80;99.90
47961;DHT22;33721;48.852;9.936;2023-03-26T19:32:28;5.80;99.90
47961;DHT22;33721;48.852;9.936;2023-03-26T19:34:57;5.80;99.90
47961;DHT22;33721;48.852;9.936;2023-03-26T19:37:25;5.70;99.90
47961;DHT22;33721;48.852;9.936;2023-03-26T19:39:58;5.70;99.90
47961;DHT22;33721;48.852;9.936;2023-03-26T19:42:30;5.70;99.90
47961;DHT22;33721;48.852;9.936;2023-03-26T19:44:58;5.70;99.90
47961;DHT22;33721;48.852;9.936;2023-03-26T19:47:37;5.60;99.90
47961;DHT22;33721;48.852;9.936;2023-03-26T19:55:36;5.50;99.90
47961;DHT22;33721;48.852;9.936;2023-03-26T19:58:02;5.50;99.90
47961;DHT22;33721;48.852;9.936;2023-03-26T20:00:28;5.60;99.90
47961;DHT22;33721;48.852;9.936;2023-03-26T20:02:53;5.60;99.90
47961;DHT22;33721;48.852;9.936;2023-03-26T20:05:24;5.60;99.90
47961;DHT22;33721;48.852;9.936;2023-03-26T20:07:55;5.70;99.90
47961;DHT22;33721;48.852;9.936;2023-03-26T20:10:22;5.70;99.90
47961;DHT22;33721;48.852;9.936;2023-03-26T20:12:48;5.70;99.90
47961;DHT22;33721;48.852;9.936;2023-03-26T20:15:25;5.70;99.90
47961;DHT22;33721;48.852;9.936;2023-03-26T20:17:52;5.70;99.90
47961;DHT22;33721;48.852;9.936;2023-03-26T20:20:18;5.70;99.90
47961;DHT22;33721;48.852;9.936;2023-03-26T20:22:46;5.70;99.90
47961;DHT22;33721;48.852;9.936;2023-03-26T20:25:27;5.70;99.90
47961;DHT22;33721;48.852;9.936;2023-03-26T20:27:53;5.70;99.90
47961;DHT22;33721;48.852;9.936;2023-03-26T20:30:22;5.70;99.90
47961;DHT22;33721;48.852;9.936;2023-03-26T20:32:48;5.80;99.90
47961;DHT22;33721;48.852;9.936;2023-03-26T20:35:17;5.80;99.90
47961;DHT22;33721;48.852;9.936;2023-03-26T20:37:45;5.80;99.90
47961;DHT22;33721;48.852;9.936;2023-03-26T20:40:11;5.80;99.90
47961;DHT22;33721;48.852;9.936;2023-03-26T20:42:39;5.80;99.90
47961;DHT22;33721;48.852;9.936;2023-03-26T20:47:39;5.80;99.90
47961;DHT22;33721;48.852;9.936;2023-03-26T20:50:05;5.80;99.90
47961;DHT22;33721;48.852;9.936;2023-03-26T20:52:31;5.90;99.90
47961;DHT22;33721;48.852;9.936;2023-03-26T20:54:57;5.80;99.90
47961;DHT22;33721;48.852;9.936;2023-03-26T20:57:23;5.80;99.90
47961;DHT22;33721;48.852;9.936;2023-03-26T20:59:51;5.80;99.90
47961;DHT22;33721;48.852;9.936;2023-03-26T21:02:18;5.80;99.90
47961;DHT22;33721;48.852;9.936;2023-03-26T21:04:44;5.80;99.90
47961;DHT22;33721;48.852;9.936;2023-03-26T21:07:13;5.80;99.90
47961;DHT22;33721;48.852;9.936;2023-03-26T21:09:39;5.80;99.90
47961;DHT22;33721;48.852;9.936;2023-03-26T21:12:07;5.80;99.90
47961;DHT22;33721;48.852;9.936;2023-03-26T21:14:38;5.80;99.90
47961;DHT22;33721;48.852;9.936;2023-03-26T21:17:16;5.70;99.90
47961;DHT22;33721;48.852;9.936;2023-03-26T21:19:42;5.70;99.90
47961;DHT22;33721;48.852;9.936;2023-03-26T21:24:53;5.60;99.90
47961;DHT22;33721;48.852;9.936;2023-03-26T21:27:57;5.60;99.90
47961;DHT22;33721;48.852;9.936;2023-03-26T21:30:24;5.60;99.90
47961;DHT22;33721;48.852;9.936;2023-03-26T21:32:50;5.60;99.90
47961;DHT22;33721;48.852;9.936;2023-03-26T21:35:16;5.60;99.90
47961;DHT22;33721;48.852;9.936;2023-03-26T21:37:43;5.60;99.90